^^
B2 Weather Station Historical Data
Daily Summary for June 18, 2019 Units:  English    Metric   Both
Daily Weekly Monthly Yearly Custom
  High: Low: Average:
Temperature: 80 °F 56.4 °F 66.9 °F
Dew Point: 68.7 °F 55 °F 62.2 °F
Humidity: 95% 64% 86%
Wind Speed: 6.9mph 0mph 0.9mph
Wind Gust: 5mph - -
Wind- - SE
Pressure: 29.98 in 29.82 in -
Precipitation: 0 in    
Historical Graphs
 
 
Tabular Data for June 18, 2019
Time Temperature Dew Point Pressure Wind Wind Speed Wind Gust Humidity Rainfall Rate (Hourly) solar
00:04 58.3 °F 56.9 °F 29.98 in Calm     95% 0 in 0.00 W/m2
00:09 58.3 °F 56.9 °F 29.98 in Calm     95% 0 in 0.00 W/m2
00:14 58.4 °F 57 °F 29.98 in Calm     95% 0 in 0.00 W/m2
00:19 58.4 °F 57 °F 29.98 in Calm     95% 0 in 0.00 W/m2
00:24 58.4 °F 57 °F 29.98 in Calm     95% 0 in 0.00 W/m2
00:30 58.4 °F 57 °F 29.97 in Calm     95% 0 in 0.00 W/m2
00:35 58.5 °F 57.1 °F 29.97 in Calm     95% 0 in 0.00 W/m2
00:39 58.5 °F 57.1 °F 29.97 in Calm     95% 0 in 0.00 W/m2
00:44 58.6 °F 57.2 °F 29.97 in Calm     95% 0 in 0.00 W/m2
00:49 58.6 °F 57.2 °F 29.97 in Calm     95% 0 in 0.00 W/m2
00:54 58.6 °F 57.2 °F 29.97 in Calm     95% 0 in 0.00 W/m2
00:59 58.7 °F 57.3 °F 29.97 in Calm     95% 0 in 0.00 W/m2
01:04 58.7 °F 57.3 °F 29.97 in Calm     95% 0 in 0.00 W/m2
01:09 58.8 °F 57.4 °F 29.97 in Calm     95% 0 in 0.00 W/m2
01:14 58.8 °F 57.4 °F 29.96 in Calm     95% 0 in 0.00 W/m2
01:19 58.9 °F 57.5 °F 29.96 in Calm     95% 0 in 0.00 W/m2
01:24 59 °F 57.6 °F 29.96 in Calm     95% 0 in 0.00 W/m2
01:29 59.1 °F 57.7 °F 29.96 in Calm     95% 0 in 0.00 W/m2
01:34 59.1 °F 57.7 °F 29.97 in Calm     95% 0 in 0.00 W/m2
01:39 59.1 °F 57.7 °F 29.97 in Calm     95% 0 in 0.00 W/m2
01:44 59.1 °F 57.7 °F 29.97 in Calm     95% 0 in 0.00 W/m2
01:49 59.2 °F 57.8 °F 29.96 in Calm   0.1 mph 95% 0 in 0.00 W/m2
01:54 59.3 °F 57.9 °F 29.96 in Calm     95% 0 in 0.00 W/m2
01:59 59.3 °F 57.9 °F 29.96 in Calm     95% 0 in 0.00 W/m2
02:04 59.4 °F 58 °F 29.96 in Calm     95% 0 in 0.00 W/m2
02:09 59.4 °F 58 °F 29.96 in Calm     95% 0 in 0.00 W/m2
02:14 59.4 °F 58 °F 29.96 in Calm   0.9 mph 95% 0 in 0.00 W/m2
02:19 59.5 °F 58.1 °F 29.95 in Calm     95% 0 in 0.00 W/m2
02:24 59.5 °F 58.1 °F 29.95 in Calm     95% 0 in 0.00 W/m2
02:29 59.5 °F 58.1 °F 29.95 in Calm     95% 0 in 0.00 W/m2
02:34 59.5 °F 58.1 °F 29.95 in Calm     95% 0 in 0.00 W/m2
02:39 59.5 °F 58.1 °F 29.95 in Calm     95% 0 in 0.00 W/m2
02:44 59.5 °F 58.1 °F 29.95 in Calm     95% 0 in 0.00 W/m2
02:49 59.5 °F 58.1 °F 29.95 in Calm     95% 0 in 0.00 W/m2
02:54 59.4 °F 58 °F 29.95 in NNE 1.2 mph   95% 0 in 0.00 W/m2
02:59 59.3 °F 57.9 °F 29.95 in Calm     95% 0 in 0.00 W/m2
03:04 59.2 °F 57.8 °F 29.95 in Calm     95% 0 in 0.00 W/m2
03:09 59.1 °F 57.7 °F 29.94 in NNE 1.2 mph 1 mph 95% 0 in 0.00 W/m2
03:14 59 °F 57.6 °F 29.95 in Calm     95% 0 in 0.00 W/m2
03:19 58.9 °F 57.5 °F 29.94 in Calm     95% 0 in 0.00 W/m2
03:24 58.7 °F 57.3 °F 29.94 in Calm   0.3 mph 95% 0 in 0.00 W/m2
03:29 58.5 °F 57.1 °F 29.94 in Calm     95% 0 in 0.00 W/m2
03:34 58.4 °F 57 °F 29.94 in Calm     95% 0 in 0.00 W/m2
03:39 58.3 °F 56.9 °F 29.94 in Calm     95% 0 in 0.00 W/m2
03:44 58.1 °F 56.7 °F 29.95 in Calm     95% 0 in 0.00 W/m2
03:49 58 °F 56.6 °F 29.95 in Calm     95% 0 in 0.00 W/m2
03:54 57.7 °F 56.3 °F 29.95 in Calm     95% 0 in 0.00 W/m2
03:59 57.5 °F 56.1 °F 29.95 in Calm     95% 0 in 0.00 W/m2
04:04 57.4 °F 56 °F 29.95 in Calm     95% 0 in 0.00 W/m2
04:09 57.3 °F 55.9 °F 29.94 in NNE 2.3 mph   95% 0 in 0.00 W/m2
04:14 57.1 °F 55.7 °F 29.94 in Calm     95% 0 in 0.00 W/m2
04:19 57 °F 55.6 °F 29.94 in Calm     95% 0 in 0.00 W/m2
04:24 56.8 °F 55.4 °F 29.94 in Calm     95% 0 in 0.00 W/m2
04:29 56.5 °F 55.1 °F 29.94 in Calm   0.2 mph 95% 0 in 0.00 W/m2
04:34 56.5 °F 55.1 °F 29.94 in Calm     95% 0 in 0.00 W/m2
04:39 56.4 °F 55 °F 29.95 in Calm     95% 0 in 0.00 W/m2
04:44 56.4 °F 55 °F 29.94 in Calm     95% 0 in 0.00 W/m2
04:49 56.6 °F 55.2 °F 29.95 in NNE 2 mph 0.3 mph 95% 0 in 0.00 W/m2
04:54 56.8 °F 55.4 °F 29.95 in NE 3.5 mph 1.6 mph 95% 0 in 0.00 W/m2
04:59 56.8 °F 55.4 °F 29.95 in NNE 3.5 mph 0.8 mph 95% 0 in 0.00 W/m2
05:04 56.7 °F 55.3 °F 29.95 in NNE 3.5 mph 1.3 mph 95% 0 in 0.00 W/m2
05:09 56.6 °F 55.2 °F 29.95 in Calm   0.8 mph 95% 0 in 0.00 W/m2
05:14 56.6 °F 55.2 °F 29.95 in NE 1.2 mph   95% 0 in 0.00 W/m2
05:19 56.6 °F 55.2 °F 29.95 in Calm     95% 0 in 0.00 W/m2
05:24 56.7 °F 55.3 °F 29.95 in Calm     95% 0 in 0.00 W/m2
05:29 56.8 °F 55.4 °F 29.95 in Calm     95% 0 in 0.00 W/m2
05:34 56.9 °F 55.5 °F 29.95 in NNE 3.5 mph   95% 0 in 0.00 W/m2
05:39 56.9 °F 55.5 °F 29.95 in NE 3 mph 0.2 mph 95% 0 in 0.00 W/m2
05:44 56.9 °F 55.5 °F 29.95 in NNE 2.3 mph   95% 0 in 5.00 W/m2
05:49 57 °F 55.6 °F 29.95 in Calm     95% 0 in 9.00 W/m2
05:54 57.2 °F 55.8 °F 29.95 in Calm     95% 0 in 14.00 W/m2
05:59 57.3 °F 55.9 °F 29.95 in Calm     95% 0 in 16.00 W/m2
06:04 57.5 °F 56.1 °F 29.95 in NE 2.3 mph 0.8 mph 95% 0 in 23.00 W/m2
06:09 57.6 °F 56.2 °F 29.95 in Calm     95% 0 in 25.00 W/m2
06:14 57.8 °F 56.4 °F 29.95 in Calm     95% 0 in 23.00 W/m2
06:19 57.9 °F 56.5 °F 29.95 in Calm     95% 0 in 30.00 W/m2
06:24 58 °F 56.6 °F 29.95 in NNE 3.5 mph 1.2 mph 95% 0 in 25.00 W/m2
06:29 58.1 °F 56.7 °F 29.95 in NNE 4.6 mph 0.7 mph 95% 0 in 28.00 W/m2
06:34 58.2 °F 56.8 °F 29.95 in North 3 mph 1.5 mph 95% 0 in 32.00 W/m2
06:39 58.2 °F 56.8 °F 29.95 in NNE 3.5 mph 1.5 mph 95% 0 in 33.00 W/m2
06:44 58.3 °F 56.9 °F 29.95 in NNE 1.2 mph   95% 0 in 23.00 W/m2
06:49 58.3 °F 56.9 °F 29.95 in North 4.6 mph 2.3 mph 95% 0 in 23.00 W/m2
06:54 58.3 °F 56.9 °F 29.95 in Calm     95% 0 in 40.00 W/m2
06:59 58.5 °F 57.1 °F 29.95 in North 3.5 mph 1.5 mph 95% 0 in 65.00 W/m2
07:04 58.7 °F 57.3 °F 29.95 in NNE 1.2 mph   95% 0 in 62.00 W/m2
07:09 58.8 °F 57.4 °F 29.95 in NNE 3.5 mph 0.4 mph 95% 0 in 84.00 W/m2
07:14 58.9 °F 57.5 °F 29.95 in NNE 4.6 mph 0.8 mph 95% 0 in 84.00 W/m2
07:19 59 °F 57.6 °F 29.95 in North 4.6 mph 3.5 mph 95% 0 in 90.00 W/m2
07:24 59.1 °F 57.7 °F 29.95 in NE 5 mph 1.3 mph 95% 0 in 113.00 W/m2
07:29 59.3 °F 57.9 °F 29.95 in Calm   0.4 mph 95% 0 in 113.00 W/m2
07:35 59.5 °F 58.1 °F 29.95 in NE 4.6 mph 2.2 mph 95% 0 in 114.00 W/m2
07:39 59.6 °F 58.2 °F 29.95 in NNE 3.5 mph 0.5 mph 95% 0 in 104.00 W/m2
07:45 59.7 °F 58.3 °F 29.95 in Calm     95% 0 in 102.00 W/m2
07:49 59.9 °F 58.5 °F 29.96 in Calm     95% 0 in 95.00 W/m2
07:54 59.9 °F 58.5 °F 29.95 in Calm     95% 0 in 111.00 W/m2
07:59 60 °F 58.6 °F 29.95 in NE 1.2 mph   95% 0 in 125.00 W/m2
08:04 60.3 °F 58.9 °F 29.95 in ENE 1.2 mph   95% 0 in 153.00 W/m2
08:09 60.6 °F 59.2 °F 29.95 in NNE 2.3 mph 1.1 mph 95% 0 in 160.00 W/m2
08:15 60.9 °F 59.5 °F 29.95 in ENE 1.2 mph 0.1 mph 95% 0 in 174.00 W/m2
08:20 61.2 °F 59.8 °F 29.95 in Calm     95% 0 in 214.00 W/m2
08:24 61.3 °F 59.9 °F 29.94 in ENE 3.5 mph 1.9 mph 95% 0 in 181.00 W/m2
08:30 61.4 °F 60 °F 29.94 in ENE 3.5 mph 0.7 mph 95% 0 in 172.00 W/m2
08:34 61.7 °F 60.3 °F 29.94 in Calm     95% 0 in 165.00 W/m2
08:39 61.9 °F 60.5 °F 29.94 in Calm     95% 0 in 167.00 W/m2
08:44 62 °F 60.6 °F 29.94 in Calm     95% 0 in 179.00 W/m2
08:50 62.2 °F 60.8 °F 29.95 in ENE 1.2 mph 0.1 mph 95% 0 in 171.00 W/m2
08:55 62.1 °F 60.7 °F 29.95 in ENE 1.2 mph 0.1 mph 95% 0 in 169.00 W/m2
08:59 62.2 °F 60.8 °F 29.95 in Calm     95% 0 in 174.00 W/m2
09:04 62.6 °F 61.1 °F 29.94 in ENE 1 mph 0.1 mph 95% 0 in 214.00 W/m2
09:09 63 °F 61.5 °F 29.94 in ENE 3.5 mph 0.8 mph 95% 0 in 232.00 W/m2
09:14 63 °F 61.5 °F 29.95 in Calm     95% 0 in 197.00 W/m2
09:19 63.1 °F 61.6 °F 29.95 in Calm     95% 0 in 234.00 W/m2
09:24 63.2 °F 61.7 °F 29.95 in Calm     95% 0 in 232.00 W/m2
09:29 63.5 °F 62 °F 29.95 in Calm     95% 0 in 211.00 W/m2
09:34 63.8 °F 62.3 °F 29.95 in ENE 3.5 mph 0.7 mph 95% 0 in 264.00 W/m2
09:39 63.8 °F 62.3 °F 29.95 in Calm     95% 0 in 250.00 W/m2
09:44 64 °F 62.5 °F 29.95 in Calm     95% 0 in 274.00 W/m2
09:49 63.9 °F 62.4 °F 29.95 in Calm     95% 0 in 258.00 W/m2
09:54 63.8 °F 62.3 °F 29.95 in Calm     95% 0 in 253.00 W/m2
09:59 64.2 °F 62.7 °F 29.95 in NE 1.2 mph   95% 0 in 285.00 W/m2
10:04 64.3 °F 62.8 °F 29.95 in Calm     95% 0 in 302.00 W/m2
10:09 64.4 °F 62.9 °F 29.95 in Calm     95% 0 in 234.00 W/m2
10:14 64.5 °F 63 °F 29.95 in Calm     95% 0 in 292.00 W/m2
10:19 64.7 °F 63.2 °F 29.95 in Calm   1 mph 95% 0 in 315.00 W/m2
10:24 64.6 °F 63.1 °F 29.95 in Calm     95% 0 in 287.00 W/m2
10:29 64.7 °F 63.2 °F 29.95 in Calm     95% 0 in 244.00 W/m2
10:34 64.9 °F 63.4 °F 29.95 in Calm     95% 0 in 234.00 W/m2
10:39 65.2 °F 63.7 °F 29.95 in NNW 1.2 mph   95% 0 in 167.00 W/m2
10:44 65.3 °F 63.8 °F 29.96 in NNW 3.5 mph 2.2 mph 95% 0 in 178.00 W/m2
10:49 65.4 °F 63.9 °F 29.96 in NNE 1.2 mph 0.2 mph 95% 0 in 195.00 W/m2
10:54 65.4 °F 63.6 °F 29.96 in North 3.5 mph 0.7 mph 94% 0 in 185.00 W/m2
10:59 65.7 °F 64.2 °F 29.95 in NNE 2.3 mph 0.2 mph 95% 0 in 262.00 W/m2
11:04 65.8 °F 64 °F 29.95 in North 5.8 mph 4.4 mph 94% 0 in 223.00 W/m2
11:09 65.6 °F 63.8 °F 29.95 in North 6.9 mph 4.5 mph 94% 0 in 292.00 W/m2
11:14 65.8 °F 64 °F 29.95 in North 6.9 mph 3.9 mph 94% 0 in 353.00 W/m2
11:19 65.9 °F 64.1 °F 29.95 in NNW 6 mph 4.5 mph 94% 0 in 415.00 W/m2
11:24 65.9 °F 64.1 °F 29.95 in NNW 5.8 mph 4 mph 94% 0 in 519.00 W/m2
11:29 66.4 °F 64.6 °F 29.95 in North 3.5 mph 1.7 mph 94% 0 in 445.00 W/m2
11:34 66.6 °F 64.8 °F 29.95 in North 4.6 mph 0.6 mph 94% 0 in 603.00 W/m2
11:39 67.2 °F 65.4 °F 29.95 in NNW 4.6 mph 2.7 mph 94% 0 in 487.00 W/m2
11:44 67.6 °F 65.5 °F 29.95 in NNW 3.5 mph 1.4 mph 93% 0 in 993.00 W/m2
11:49 68.1 °F 65.7 °F 29.95 in North 3 mph 1.8 mph 92% 0 in 471.00 W/m2
11:54 68.7 °F 66.3 °F 29.94 in Calm     92% 0 in 1076.00 W/m2
11:59 69.1 °F 66 °F 29.94 in Calm     90% 0 in 817.00 W/m2
12:04 69 °F 65.3 °F 29.94 in Calm     88% 0 in 429.00 W/m2
12:09 69.1 °F 65.4 °F 29.94 in Calm     88% 0 in 320.00 W/m2
12:14 69.4 °F 65.7 °F 29.94 in Calm     88% 0 in 364.00 W/m2
12:19 69.4 °F 65.4 °F 29.94 in Calm     87% 0 in 404.00 W/m2
12:24 69.8 °F 66.4 °F 29.94 in Calm     89% 0 in 480.00 W/m2
12:29 70.5 °F 67.1 °F 29.94 in Calm     89% 0 in 798.00 W/m2
12:34 71.5 °F 67.8 °F 29.93 in Calm     88% 0 in 788.00 W/m2
12:39 71.7 °F 67.6 °F 29.93 in NNE 1.2 mph   87% 0 in 1155.00 W/m2
12:44 71.9 °F 66.5 °F 29.93 in Calm     83% 0 in 986.00 W/m2
12:49 72.2 °F 67.4 °F 29.93 in Calm     85% 0 in 366.00 W/m2
12:54 72.6 °F 67.8 °F 29.93 in Calm     85% 0 in 745.00 W/m2
12:59 72.8 °F 66.6 °F 29.93 in NNE 3.5 mph 1.5 mph 81% 0 in 454.00 W/m2
13:04 72.9 °F 67.8 °F 29.93 in Calm     84% 0 in 1125.00 W/m2
13:09 73.3 °F 67.1 °F 29.92 in Calm   0.1 mph 81% 0 in 1125.00 W/m2
13:14 73.4 °F 67.2 °F 29.93 in Calm     81% 0 in 512.00 W/m2
13:19 73.3 °F 66 °F 29.92 in Calm     78% 0 in 468.00 W/m2
13:24 73.6 °F 67.4 °F 29.92 in Calm     81% 0 in 494.00 W/m2
13:29 73.5 °F 66.6 °F 29.92 in NNW 2.3 mph 0.1 mph 79% 0 in 548.00 W/m2
13:34 73.5 °F 66.2 °F 29.91 in Calm     78% 0 in 1171.00 W/m2
13:39 74.2 °F 68.7 °F 29.91 in NNE 1.2 mph 0.2 mph 83% 0 in 1071.00 W/m2
13:44 74.8 °F 67.5 °F 29.91 in NNE 2.3 mph   78% 0 in 533.00 W/m2
13:49 74.9 °F 66.8 °F 29.91 in Calm   0.7 mph 76% 0 in 526.00 W/m2
13:54 74.8 °F 66.7 °F 29.90 in North 3.5 mph   76% 0 in 527.00 W/m2
13:59 74.7 °F 66.2 °F 29.90 in NNW 4.6 mph   75% 0 in 566.00 W/m2
14:04 75.1 °F 68.5 °F 29.90 in NE 1.2 mph 0.3 mph 80% 0 in 1114.00 W/m2
14:09 75.9 °F 68.2 °F 29.90 in NE 1.2 mph   77% 0 in 1072.00 W/m2
14:14 76.8 °F 68.7 °F 29.90 in Calm     76% 0 in 1102.00 W/m2
14:19 77.4 °F 68.1 °F 29.89 in Calm     73% 0 in 1058.00 W/m2
14:24 77.8 °F 67.6 °F 29.89 in ENE 2.3 mph 0.1 mph 71% 0 in 1067.00 W/m2
14:29 77.6 °F 67.4 °F 29.89 in NE 1 mph   71% 0 in 1067.00 W/m2
14:34 77.2 °F 67.1 °F 29.89 in North 3 mph 0.2 mph 71% 0 in 645.00 W/m2
14:39 77.1 °F 68.6 °F 29.89 in NNW 5 mph 1.4 mph 75% 0 in 969.00 W/m2
14:44 76.6 °F 66.5 °F 29.89 in Calm     71% 0 in 865.00 W/m2
14:49 76.2 °F 66.9 °F 29.89 in North 3 mph 0.8 mph 73% 0 in 304.00 W/m2
14:54 75.7 °F 66.8 °F 29.89 in Calm     74% 0 in 851.00 W/m2
14:59 76.1 °F 68 °F 29.88 in Calm     76% 0 in 824.00 W/m2
15:04 76.9 °F 67.2 °F 29.88 in Calm     72% 0 in 833.00 W/m2
15:09 77.2 °F 67.5 °F 29.88 in NE 3.5 mph   72% 0 in 837.00 W/m2
15:14 77.4 °F 67.3 °F 29.88 in NNE 1.2 mph 0.4 mph 71% 0 in 844.00 W/m2
15:19 77.5 °F 67.4 °F 29.88 in Calm     71% 0 in 849.00 W/m2
15:24 77.9 °F 66.9 °F 29.88 in NNW 3.5 mph 1.5 mph 69% 0 in 835.00 W/m2
15:29 77.8 °F 66.8 °F 29.88 in NE 1.2 mph 0.9 mph 69% 0 in 497.00 W/m2
15:34 77.9 °F 66.5 °F 29.88 in NNW 2.3 mph 2.7 mph 68% 0 in 816.00 W/m2
15:39 77.6 °F 65.8 °F 29.87 in NW 3.5 mph 2.4 mph 67% 0 in 798.00 W/m2
15:44 77.6 °F 65.8 °F 29.87 in NNW 3.5 mph   67% 0 in 795.00 W/m2
15:49 77.8 °F 66.8 °F 29.87 in NNE 3.5 mph 1.9 mph 69% 0 in 793.00 W/m2
15:54 77.8 °F 67.2 °F 29.87 in North 3.5 mph 3.1 mph 70% 0 in 795.00 W/m2
15:59 77.8 °F 68 °F 29.87 in North 1.2 mph 0.3 mph 72% 0 in 793.00 W/m2
16:04 78.6 °F 68 °F 29.87 in NE 1.2 mph 1.6 mph 70% 0 in 756.00 W/m2
16:09 79.1 °F 68.1 °F 29.86 in ENE 3.5 mph 0.9 mph 69% 0 in 733.00 W/m2
16:14 79.1 °F 68.1 °F 29.86 in NE 2.3 mph 0.8 mph 69% 0 in 174.00 W/m2
16:19 78.5 °F 67.5 °F 29.86 in Calm     69% 0 in 192.00 W/m2
16:24 78.8 °F 68.2 °F 29.86 in NE 3.5 mph 0.3 mph 70% 0 in 679.00 W/m2
16:29 78.9 °F 67.4 °F 29.86 in Calm     68% 0 in 158.00 W/m2
16:34 78.8 °F 66.5 °F 29.85 in NE 2.3 mph   66% 0 in 178.00 W/m2
16:39 78.5 °F 67.1 °F 29.85 in Calm     68% 0 in 141.00 W/m2
16:44 78.4 °F 66.1 °F 29.85 in Calm     66% 0 in 615.00 W/m2
16:49 78.9 °F 67.9 °F 29.85 in East 2.3 mph   69% 0 in 624.00 W/m2
16:54 79.1 °F 67.2 °F 29.85 in Calm     67% 0 in 578.00 W/m2
16:59 79 °F 68 °F 29.85 in Calm     69% 0 in 584.00 W/m2
17:04 79.2 °F 67.3 °F 29.85 in Calm     67% 0 in 564.00 W/m2
17:09 79.3 °F 67 °F 29.84 in Calm     66% 0 in 520.00 W/m2
17:14 79.4 °F 67.5 °F 29.84 in Calm     67% 0 in 308.00 W/m2
17:19 78.9 °F 67.4 °F 29.84 in Calm     68% 0 in 497.00 W/m2
17:24 79 °F 67.1 °F 29.84 in Calm     67% 0 in 497.00 W/m2
17:29 79.2 °F 68.1 °F 29.84 in Calm     69% 0 in 476.00 W/m2
17:34 79.3 °F 67.4 °F 29.84 in Calm     67% 0 in 427.00 W/m2
17:39 79.2 °F 66.9 °F 29.84 in Calm     66% 0 in 436.00 W/m2
17:44 79.4 °F 67.5 °F 29.84 in Calm     67% 0 in 418.00 W/m2
17:49 79.7 °F 67.8 °F 29.84 in Calm     67% 0 in 381.00 W/m2
17:54 79.7 °F 67.8 °F 29.84 in Calm     67% 0 in 383.00 W/m2
17:59 79.8 °F 67.4 °F 29.84 in Calm     66% 0 in 378.00 W/m2
18:04 79.8 °F 66.5 °F 29.84 in Calm     64% 0 in 309.00 W/m2
18:09 80 °F 67.2 °F 29.83 in Calm     65% 0 in 320.00 W/m2
18:14 80 °F 67.2 °F 29.83 in Calm     65% 0 in 283.00 W/m2
18:19 79.8 °F 67.4 °F 29.83 in Calm     66% 0 in 332.00 W/m2
18:24 79.7 °F 66.9 °F 29.83 in Calm     65% 0 in 262.00 W/m2
18:29 79.7 °F 66.9 °F 29.83 in Calm     65% 0 in 264.00 W/m2
18:34 79.5 °F 66.7 °F 29.83 in Calm     65% 0 in 269.00 W/m2
18:39 79.4 °F 66.6 °F 29.83 in Calm     65% 0 in 221.00 W/m2
18:44 79.6 °F 67.2 °F 29.82 in Calm     66% 0 in 199.00 W/m2
18:49 79.4 °F 66.6 °F 29.82 in Calm     65% 0 in 151.00 W/m2
18:54 79.3 °F 67 °F 29.82 in Calm     66% 0 in 163.00 W/m2
18:59 79.2 °F 66.9 °F 29.82 in Calm     66% 0 in 153.00 W/m2
19:04 79.2 °F 68.1 °F 29.82 in Calm     69% 0 in 137.00 W/m2
19:09 79.1 °F 66.8 °F 29.82 in Calm     66% 0 in 134.00 W/m2
19:14 78.9 °F 66.1 °F 29.82 in Calm     65% 0 in 83.00 W/m2
19:19 78.8 °F 66.5 °F 29.83 in Calm     66% 0 in 90.00 W/m2
19:24 78.6 °F 65.4 °F 29.82 in Calm     64% 0 in 72.00 W/m2
19:29 78.1 °F 65.8 °F 29.83 in Calm     66% 0 in 51.00 W/m2
19:34 77.8 °F 66.4 °F 29.83 in Calm     68% 0 in 39.00 W/m2
19:39 77.4 °F 66 °F 29.83 in Calm     68% 0 in 35.00 W/m2
19:44 76.9 °F 66 °F 29.82 in Calm     69% 0 in 30.00 W/m2
19:49 76.4 °F 65.9 °F 29.83 in Calm     70% 0 in 26.00 W/m2
19:54 75.9 °F 65.8 °F 29.82 in Calm     71% 0 in 23.00 W/m2
19:59 75.5 °F 65.4 °F 29.82 in Calm     71% 0 in 19.00 W/m2
20:04 74.9 °F 65.3 °F 29.82 in Calm     72% 0 in 14.00 W/m2
20:09 74.4 °F 65.6 °F 29.82 in Calm     74% 0 in 9.00 W/m2
20:14 74 °F 66 °F 29.82 in Calm     76% 0 in 5.00 W/m2
20:19 73.5 °F 66.6 °F 29.82 in Calm     79% 0 in 0.00 W/m2
20:24 72.9 °F 66.4 °F 29.82 in Calm     80% 0 in 0.00 W/m2
20:29 72.2 °F 66.4 °F 29.82 in Calm     82% 0 in 0.00 W/m2
20:34 71.7 °F 65.9 °F 29.82 in Calm     82% 0 in 0.00 W/m2
20:39 71.1 °F 65.3 °F 29.82 in Calm     82% 0 in 0.00 W/m2
20:44 70.7 °F 64.6 °F 29.82 in Calm     81% 0 in 0.00 W/m2
20:49 70.7 °F 64.6 °F 29.83 in NNW 6.9 mph 5 mph 81% 0 in 0.00 W/m2
20:54 70.7 °F 64.6 °F 29.83 in North 3.5 mph 2.6 mph 81% 0 in 0.00 W/m2
20:59 70.5 °F 65.1 °F 29.83 in North 3.5 mph 1 mph 83% 0 in 0.00 W/m2
21:04 70.1 °F 64.7 °F 29.83 in North 3.5 mph 0.6 mph 83% 0 in 0.00 W/m2
21:09 69.8 °F 64.7 °F 29.83 in Calm     84% 0 in 0.00 W/m2
21:14 69.5 °F 64.1 °F 29.83 in North 1.2 mph   83% 0 in 0.00 W/m2
21:19 69.1 °F 64.1 °F 29.83 in Calm     84% 0 in 0.00 W/m2
21:24 68.6 °F 63.6 °F 29.83 in Calm     84% 0 in 0.00 W/m2
21:29 68.1 °F 63.1 °F 29.84 in Calm     84% 0 in 0.00 W/m2
21:34 67.7 °F 63 °F 29.84 in Calm     85% 0 in 0.00 W/m2
21:39 67.3 °F 62.6 °F 29.84 in Calm     85% 0 in 0.00 W/m2
21:44 66.9 °F 62.6 °F 29.84 in Calm     86% 0 in 0.00 W/m2
21:49 66.6 °F 62.6 °F 29.84 in Calm     87% 0 in 0.00 W/m2
21:54 66.3 °F 62.3 °F 29.84 in Calm     87% 0 in 0.00 W/m2
21:59 66 °F 62.3 °F 29.84 in Calm     88% 0 in 0.00 W/m2
22:04 65.8 °F 62.5 °F 29.84 in Calm     89% 0 in 0.00 W/m2
22:09 65.6 °F 62.3 °F 29.84 in Calm     89% 0 in 0.00 W/m2
22:14 65.4 °F 62.1 °F 29.84 in Calm     89% 0 in 0.00 W/m2
22:19 65.2 °F 61.9 °F 29.84 in Calm     89% 0 in 0.00 W/m2
22:24 64.8 °F 61.2 °F 29.84 in Calm     88% 0 in 0.00 W/m2
22:29 64.4 °F 61.1 °F 29.84 in Calm     89% 0 in 0.00 W/m2
22:34 64.3 °F 61.3 °F 29.84 in Calm     90% 0 in 0.00 W/m2
22:39 64.2 °F 61.2 °F 29.84 in Calm     90% 0 in 0.00 W/m2
22:44 64.1 °F 61.4 °F 29.84 in Calm     91% 0 in 0.00 W/m2
22:49 64 °F 61.3 °F 29.84 in Calm     91% 0 in 0.00 W/m2
22:54 64.1 °F 61.4 °F 29.84 in Calm     91% 0 in 0.00 W/m2
22:59 64.3 °F 61.6 °F 29.84 in Calm     91% 0 in 0.00 W/m2
23:04 64.5 °F 61.8 °F 29.84 in Calm     91% 0 in 0.00 W/m2
23:09 64.5 °F 61.8 °F 29.84 in Calm     91% 0 in 0.00 W/m2
23:14 64.3 °F 61.6 °F 29.84 in Calm     91% 0 in 0.00 W/m2
23:19 64 °F 61.3 °F 29.84 in Calm     91% 0 in 0.00 W/m2
23:24 63.8 °F 61.1 °F 29.84 in Calm     91% 0 in 0.00 W/m2
23:29 63.6 °F 60.9 °F 29.84 in Calm     91% 0 in 0.00 W/m2
23:34 63.4 °F 60.7 °F 29.84 in Calm     91% 0 in 0.00 W/m2
23:39 63.1 °F 60.4 °F 29.84 in Calm     91% 0 in 0.00 W/m2
23:44 62.8 °F 60.1 °F 29.84 in Calm     91% 0 in 0.00 W/m2
23:49 62.3 °F 59.6 °F 29.84 in Calm     91% 0 in 0.00 W/m2
23:54 62 °F 59.6 °F 29.84 in Calm     92% 0 in 0.00 W/m2
23:59 61.7 °F 59 °F 29.83 in Calm     91% 0 in 0.00 W/m2
Bourbonnais, Illinois, USA
Compliments of Weather Underground - 2 mb